Atlantic Elm — 9HA3054 — position and weather

sailwx.info

Track history (hours):
 
Tides and Currents Weather Stations Pressure Air Temp Water Temp Dewpoint Dewpoint Depression Visibility Wind Speed Wind Dir Waves Ship Positions

Atlantic Elm

Last reported at 2016-Feb-11 00:27 UTC. Time now 2016-Feb-12 18:10 UTC.
Position N 33°36' W 024°54'.

Length 190 m; draft 11.5 m.

Type: Cargo ship. MMSI: 229081000.

Date/timePositionNaut miles runAvg speedWind from/ knotsBaromVisibWave heightAir tempDewpointWater temp
2016-Feb-11 00:27N 33°36' W 024°54'1111.7
2016-Feb-10 23:32N 33°41' W 024°42'1411.6
2016-Feb-10 22:20N 33°46' W 024°27'  
2016-Feb-04 11:27N 50°24' W 000°32'1311.7
2016-Feb-04 10:19N 50°28' W 000°12'911.2
2016-Feb-04 09:33N 50°30' E 000°01'1110.8
2016-Feb-04 08:33N 50°33' E 000°17'1010.0
2016-Feb-04 07:33N 50°36' E 000°32'10 9.5
2016-Feb-04 06:33N 50°41' E 000°45'1010.0
2016-Feb-04 05:33N 50°47' E 000°57'1110.7
2016-Feb-04 04:33N 50°54' E 001°10'1212.0
2016-Feb-04 03:33N 51°02' E 001°24'1313.1
2016-Feb-04 02:33N 51°10' E 001°41'1313.0
2016-Feb-04 01:33N 51°21' E 001°52'1211.9
2016-Feb-04 00:33N 51°30' E 002°04'1111.4
2016-Feb-03 23:33N 51°39' E 002°16'  
2016-Feb-01 08:27N 57°47' E 009°35'2111.2
2016-Feb-01 06:33N 57°49' E 010°14'1010.4
2016-Feb-01 05:33N 57°49' E 010°34'8 8.5
2016-Feb-01 04:33N 57°45' E 010°48'7 6.7
2016-Feb-01 03:33N 57°41' E 010°38'  
Track history (hours):
 
Tides and Currents Weather Stations Pressure Air Temp Water Temp Dewpoint Dewpoint Depression Visibility Wind Speed Wind Dir Waves Ship Positions

Atlantic Elm

Last reported at 2016-Feb-11 00:27 UTC. Time now 2016-Feb-12 18:10 UTC.
Position N 33°36' W 024°54'.

Length 190 m; draft 11.5 m.

Type: Cargo ship. MMSI: 229081000.

Date/timePositionNaut miles runAvg speedWind from/ knotsBaromVisibWave heightAir tempDewpointWater temp
2016-Feb-11 00:27N 33°36' W 024°54'1111.7
2016-Feb-10 23:32N 33°41' W 024°42'1411.6
2016-Feb-10 22:20N 33°46' W 024°27'  
2016-Feb-04 11:27N 50°24' W 000°32'1311.7
2016-Feb-04 10:19N 50°28' W 000°12'911.2
2016-Feb-04 09:33N 50°30' E 000°01'1110.8
2016-Feb-04 08:33N 50°33' E 000°17'1010.0
2016-Feb-04 07:33N 50°36' E 000°32'10 9.5
2016-Feb-04 06:33N 50°41' E 000°45'1010.0
2016-Feb-04 05:33N 50°47' E 000°57'1110.7
2016-Feb-04 04:33N 50°54' E 001°10'1212.0
2016-Feb-04 03:33N 51°02' E 001°24'1313.1
2016-Feb-04 02:33N 51°10' E 001°41'1313.0
2016-Feb-04 01:33N 51°21' E 001°52'1211.9
2016-Feb-04 00:33N 51°30' E 002°04'1111.4
2016-Feb-03 23:33N 51°39' E 002°16'  
2016-Feb-01 08:27N 57°47' E 009°35'2111.2
2016-Feb-01 06:33N 57°49' E 010°14'1010.4
2016-Feb-01 05:33N 57°49' E 010°34'8 8.5
2016-Feb-01 04:33N 57°45' E 010°48'7 6.7
2016-Feb-01 03:33N 57°41' E 010°38'  

Dump ship's entire track history